sensor_id;sensor_type;location;lat;lon;timestamp;temperature;humidity
5200;DHT22;2619;47.868;11.892;2023-10-09T00:00:31;12.90;99.90
5200;DHT22;2619;47.868;11.892;2023-10-09T00:03:06;12.80;99.90
5200;DHT22;2619;47.868;11.892;2023-10-09T00:05:33;12.90;99.90
5200;DHT22;2619;47.868;11.892;2023-10-09T00:08:14;12.90;99.90
5200;DHT22;2619;47.868;11.892;2023-10-09T00:10:48;12.80;99.90
5200;DHT22;2619;47.868;11.892;2023-10-09T00:13:26;12.80;99.90
5200;DHT22;2619;47.868;11.892;2023-10-09T00:16:04;12.70;99.90
5200;DHT22;2619;47.868;11.892;2023-10-09T00:18:39;12.60;99.90
5200;DHT22;2619;47.868;11.892;2023-10-09T00:21:04;12.50;99.90
5200;DHT22;2619;47.868;11.892;2023-10-09T00:23:40;12.40;99.90
5200;DHT22;2619;47.868;11.892;2023-10-09T00:26:09;12.40;99.90
5200;DHT22;2619;47.868;11.892;2023-10-09T00:28:39;12.30;99.90
5200;DHT22;2619;47.868;11.892;2023-10-09T00:31:10;12.20;99.90
5200;DHT22;2619;47.868;11.892;2023-10-09T00:33:41;12.30;99.90
5200;DHT22;2619;47.868;11.892;2023-10-09T00:36:07;12.20;99.90
5200;DHT22;2619;47.868;11.892;2023-10-09T00:38:39;12.10;99.90
5200;DHT22;2619;47.868;11.892;2023-10-09T00:41:15;12.00;99.90
5200;DHT22;2619;47.868;11.892;2023-10-09T00:43:46;12.00;99.90
5200;DHT22;2619;47.868;11.892;2023-10-09T00:46:16;12.00;99.90
5200;DHT22;2619;47.868;11.892;2023-10-09T00:48:59;11.90;99.90
5200;DHT22;2619;47.868;11.892;2023-10-09T00:51:28;11.90;99.90
5200;DHT22;2619;47.868;11.892;2023-10-09T00:54:01;11.80;99.90
5200;DHT22;2619;47.868;11.892;2023-10-09T00:56:34;11.80;99.90
5200;DHT22;2619;47.868;11.892;2023-10-09T00:59:13;11.80;99.90
5200;DHT22;2619;47.868;11.892;2023-10-09T01:01:42;11.90;99.90
5200;DHT22;2619;47.868;11.892;2023-10-09T01:04:21;11.90;99.90
5200;DHT22;2619;47.868;11.892;2023-10-09T01:06:47;12.00;99.90
5200;DHT22;2619;47.868;11.892;2023-10-09T01:09:29;12.00;99.90
5200;DHT22;2619;47.868;11.892;2023-10-09T01:12:01;12.00;99.90
5200;DHT22;2619;47.868;11.892;2023-10-09T01:14:27;12.00;99.90
5200;DHT22;2619;47.868;11.892;2023-10-09T01:16:53;12.00;99.90
5200;DHT22;2619;47.868;11.892;2023-10-09T01:19:20;12.10;99.90
5200;DHT22;2619;47.868;11.892;2023-10-09T01:21:56;12.10;99.90
5200;DHT22;2619;47.868;11.892;2023-10-09T01:24:30;12.20;99.90
5200;DHT22;2619;47.868;11.892;2023-10-09T01:26:57;12.20;99.90
5200;DHT22;2619;47.868;11.892;2023-10-09T01:29:25;12.20;99.90
5200;DHT22;2619;47.868;11.892;2023-10-09T01:31:54;12.20;99.90
5200;DHT22;2619;47.868;11.892;2023-10-09T01:34:30;12.20;99.90
5200;DHT22;2619;47.868;11.892;2023-10-09T01:37:20;12.10;99.90
5200;DHT22;2619;47.868;11.892;2023-10-09T01:39:55;12.20;99.90
5200;DHT22;2619;47.868;11.892;2023-10-09T01:42:25;12.20;99.90
5200;DHT22;2619;47.868;11.892;2023-10-09T01:45:03;12.20;99.90
5200;DHT22;2619;47.868;11.892;2023-10-09T01:47:41;12.20;99.90
5200;DHT22;2619;47.868;11.892;2023-10-09T01:50:11;12.20;99.90
5200;DHT22;2619;47.868;11.892;2023-10-09T01:52:45;12.30;99.90
5200;DHT22;2619;47.868;11.892;2023-10-09T01:55:10;12.30;99.90
5200;DHT22;2619;47.868;11.892;2023-10-09T01:57:56;12.40;99.90
5200;DHT22;2619;47.868;11.892;2023-10-09T02:00:34;12.40;99.90
5200;DHT22;2619;47.868;11.892;2023-10-09T02:03:09;12.40;99.90
5200;DHT22;2619;47.868;11.892;2023-10-09T02:05:38;12.50;99.90
5200;DHT22;2619;47.868;11.892;2023-10-09T02:08:03;12.50;99.90
5200;DHT22;2619;47.868;11.892;2023-10-09T02:10:30;12.50;99.90
5200;DHT22;2619;47.868;11.892;2023-10-09T02:13:00;12.50;99.90
5200;DHT22;2619;47.868;11.892;2023-10-09T02:15:36;12.50;99.90
5200;DHT22;2619;47.868;11.892;2023-10-09T02:18:09;12.50;99.90
5200;DHT22;2619;47.868;11.892;2023-10-09T02:23:29;12.50;99.90
5200;DHT22;2619;47.868;11.892;2023-10-09T02:26:11;12.50;99.90
5200;DHT22;2619;47.868;11.892;2023-10-09T02:29:00;12.50;99.90
5200;DHT22;2619;47.868;11.892;2023-10-09T02:31:40;12.40;99.90
5200;DHT22;2619;47.868;11.892;2023-10-09T02:34:09;12.30;99.90
5200;DHT22;2619;47.868;11.892;2023-10-09T02:36:36;12.30;99.90
5200;DHT22;2619;47.868;11.892;2023-10-09T02:39:11;12.30;99.90
5200;DHT22;2619;47.868;11.892;2023-10-09T02:41:56;12.20;99.90
5200;DHT22;2619;47.868;11.892;2023-10-09T02:44:37;12.20;99.90
5200;DHT22;2619;47.868;11.892;2023-10-09T02:47:11;12.20;99.90
5200;DHT22;2619;47.868;11.892;2023-10-09T02:49:43;12.10;99.90
5200;DHT22;2619;47.868;11.892;2023-10-09T02:52:09;12.00;99.90
5200;DHT22;2619;47.868;11.892;2023-10-09T02:54:42;12.00;99.90
5200;DHT22;2619;47.868;11.892;2023-10-09T02:57:12;11.90;99.90
5200;DHT22;2619;47.868;11.892;2023-10-09T02:59:47;12.00;99.90
5200;DHT22;2619;47.868;11.892;2023-10-09T03:02:13;11.80;99.90
5200;DHT22;2619;47.868;11.892;2023-10-09T03:04:38;11.80;99.90
5200;DHT22;2619;47.868;11.892;2023-10-09T03:07:05;11.70;99.90
5200;DHT22;2619;47.868;11.892;2023-10-09T03:09:31;11.60;99.90
5200;DHT22;2619;47.868;11.892;2023-10-09T03:11:59;11.50;99.90
5200;DHT22;2619;47.868;11.892;2023-10-09T03:14:29;11.50;99.90
5200;DHT22;2619;47.868;11.892;2023-10-09T03:16:56;11.40;99.90
5200;DHT22;2619;47.868;11.892;2023-10-09T03:19:24;11.30;99.90
5200;DHT22;2619;47.868;11.892;2023-10-09T03:21:50;11.10;99.90
5200;DHT22;2619;47.868;11.892;2023-10-09T03:24:16;11.00;99.90
5200;DHT22;2619;47.868;11.892;2023-10-09T03:26:43;10.90;99.90
5200;DHT22;2619;47.868;11.892;2023-10-09T03:29:12;10.90;99.90
5200;DHT22;2619;47.868;11.892;2023-10-09T03:31:38;10.80;99.90
5200;DHT22;2619;47.868;11.892;2023-10-09T03:34:04;10.80;99.90
5200;DHT22;2619;47.868;11.892;2023-10-09T03:36:30;10.70;99.90
5200;DHT22;2619;47.868;11.892;2023-10-09T03:38:57;10.60;99.90
5200;DHT22;2619;47.868;11.892;2023-10-09T03:41:24;10.50;99.90
5200;DHT22;2619;47.868;11.892;2023-10-09T03:43:54;10.30;99.90
5200;DHT22;2619;47.868;11.892;2023-10-09T03:46:22;10.30;99.90
5200;DHT22;2619;47.868;11.892;2023-10-09T03:48:58;10.20;99.90
5200;DHT22;2619;47.868;11.892;2023-10-09T03:51:27;10.20;99.90
5200;DHT22;2619;47.868;11.892;2023-10-09T03:53:52;10.20;99.90
5200;DHT22;2619;47.868;11.892;2023-10-09T03:56:18;10.20;99.90
5200;DHT22;2619;47.868;11.892;2023-10-09T03:58:48;10.20;99.90
5200;DHT22;2619;47.868;11.892;2023-10-09T04:01:19;10.20;99.90
5200;DHT22;2619;47.868;11.892;2023-10-09T04:03:48;10.10;99.90
5200;DHT22;2619;47.868;11.892;2023-10-09T04:06:13;10.20;99.90
5200;DHT22;2619;47.868;11.892;2023-10-09T04:08:43;10.10;99.90
5200;DHT22;2619;47.868;11.892;2023-10-09T04:11:13;10.10;99.90
5200;DHT22;2619;47.868;11.892;2023-10-09T04:13:45;10.10;99.90
5200;DHT22;2619;47.868;11.892;2023-10-09T04:16:15;10.10;99.90
5200;DHT22;2619;47.868;11.892;2023-10-09T04:19:01;10.10;99.90
5200;DHT22;2619;47.868;11.892;2023-10-09T04:21:34;10.10;99.90
5200;DHT22;2619;47.868;11.892;2023-10-09T04:24:08;10.10;99.90
5200;DHT22;2619;47.868;11.892;2023-10-09T04:26:40;10.20;99.90
5200;DHT22;2619;47.868;11.892;2023-10-09T04:29:15;10.20;99.90
5200;DHT22;2619;47.868;11.892;2023-10-09T04:31:52;10.30;99.90
5200;DHT22;2619;47.868;11.892;2023-10-09T04:34:19;10.30;99.90
5200;DHT22;2619;47.868;11.892;2023-10-09T04:36:50;10.30;99.90
5200;DHT22;2619;47.868;11.892;2023-10-09T04:39:17;10.40;99.90
5200;DHT22;2619;47.868;11.892;2023-10-09T04:41:55;10.40;99.90
5200;DHT22;2619;47.868;11.892;2023-10-09T04:44:40;10.50;99.90
5200;DHT22;2619;47.868;11.892;2023-10-09T04:47:25;10.50;99.90
5200;DHT22;2619;47.868;11.892;2023-10-09T04:50:10;10.50;99.90
5200;DHT22;2619;47.868;11.892;2023-10-09T04:52:58;10.50;99.90
5200;DHT22;2619;47.868;11.892;2023-10-09T04:55:45;10.60;99.90
5200;DHT22;2619;47.868;11.892;2023-10-09T04:58:25;10.60;99.90
5200;DHT22;2619;47.868;11.892;2023-10-09T05:00:55;10.60;99.90
5200;DHT22;2619;47.868;11.892;2023-10-09T05:03:24;10.60;99.90
5200;DHT22;2619;47.868;11.892;2023-10-09T05:05:55;10.60;99.90
5200;DHT22;2619;47.868;11.892;2023-10-09T05:08:40;10.70;99.90
5200;DHT22;2619;47.868;11.892;2023-10-09T05:11:11;10.70;99.90
5200;DHT22;2619;47.868;11.892;2023-10-09T05:13:55;10.70;99.90
5200;DHT22;2619;47.868;11.892;2023-10-09T05:16:37;10.80;99.90
5200;DHT22;2619;47.868;11.892;2023-10-09T05:19:03;10.70;99.90
5200;DHT22;2619;47.868;11.892;2023-10-09T05:21:33;10.80;99.90
5200;DHT22;2619;47.868;11.892;2023-10-09T05:24:10;10.80;99.90
5200;DHT22;2619;47.868;11.892;2023-10-09T05:26:46;10.90;99.90
5200;DHT22;2619;47.868;11.892;2023-10-09T05:29:16;10.90;99.90
5200;DHT22;2619;47.868;11.892;2023-10-09T05:31:49;10.90;99.90
5200;DHT22;2619;47.868;11.892;2023-10-09T05:34:30;11.00;99.90
5200;DHT22;2619;47.868;11.892;2023-10-09T05:37:05;11.10;99.90
5200;DHT22;2619;47.868;11.892;2023-10-09T05:39:53;11.20;99.90
5200;DHT22;2619;47.868;11.892;2023-10-09T05:42:25;11.20;99.90
5200;DHT22;2619;47.868;11.892;2023-10-09T05:47:52;11.40;99.90
5200;DHT22;2619;47.868;11.892;2023-10-09T05:50:28;11.40;99.90
5200;DHT22;2619;47.868;11.892;2023-10-09T05:52:56;11.60;99.90
5200;DHT22;2619;47.868;11.892;2023-10-09T05:55:23;11.60;99.90
5200;DHT22;2619;47.868;11.892;2023-10-09T05:57:52;11.60;99.90
5200;DHT22;2619;47.868;11.892;2023-10-09T06:00:24;11.60;99.90
5200;DHT22;2619;47.868;11.892;2023-10-09T06:03:09;11.60;99.90
5200;DHT22;2619;47.868;11.892;2023-10-09T06:05:45;11.60;99.90
5200;DHT22;2619;47.868;11.892;2023-10-09T06:08:27;11.60;99.90
5200;DHT22;2619;47.868;11.892;2023-10-09T06:11:13;11.70;99.90
5200;DHT22;2619;47.868;11.892;2023-10-09T06:13:59;11.70;99.90
5200;DHT22;2619;47.868;11.892;2023-10-09T06:16:32;11.70;99.90
5200;DHT22;2619;47.868;11.892;2023-10-09T06:19:16;11.80;99.90
5200;DHT22;2619;47.868;11.892;2023-10-09T06:21:44;12.00;99.90
5200;DHT22;2619;47.868;11.892;2023-10-09T06:24:19;12.00;99.90
5200;DHT22;2619;47.868;11.892;2023-10-09T06:26:46;12.10;99.90
5200;DHT22;2619;47.868;11.892;2023-10-09T06:29:28;12.30;99.90
5200;DHT22;2619;47.868;11.892;2023-10-09T06:32:20;12.50;99.90
5200;DHT22;2619;47.868;11.892;2023-10-09T06:34:53;12.80;99.90
5200;DHT22;2619;47.868;11.892;2023-10-09T06:37:22;13.00;99.90
5200;DHT22;2619;47.868;11.892;2023-10-09T06:39:56;13.30;99.90
5200;DHT22;2619;47.868;11.892;2023-10-09T06:42:25;13.60;99.90
5200;DHT22;2619;47.868;11.892;2023-10-09T06:45:01;13.90;99.90
5200;DHT22;2619;47.868;11.892;2023-10-09T06:47:30;14.20;99.90
5200;DHT22;2619;47.868;11.892;2023-10-09T06:50:02;14.60;99.90
5200;DHT22;2619;47.868;11.892;2023-10-09T06:52:46;14.90;99.90
5200;DHT22;2619;47.868;11.892;2023-10-09T06:55:38;15.30;99.90
5200;DHT22;2619;47.868;11.892;2023-10-09T06:58:18;15.60;99.90
5200;DHT22;2619;47.868;11.892;2023-10-09T07:00:54;15.90;99.90
5200;DHT22;2619;47.868;11.892;2023-10-09T07:03:38;16.20;99.90
5200;DHT22;2619;47.868;11.892;2023-10-09T07:06:18;16.60;99.90
5200;DHT22;2619;47.868;11.892;2023-10-09T07:08:58;16.80;99.90
5200;DHT22;2619;47.868;11.892;2023-10-09T07:11:40;16.80;99.90
5200;DHT22;2619;47.868;11.892;2023-10-09T07:14:11;16.80;99.90
5200;DHT22;2619;47.868;11.892;2023-10-09T07:19:29;17.00;99.90
5200;DHT22;2619;47.868;11.892;2023-10-09T07:22:08;17.10;99.90
5200;DHT22;2619;47.868;11.892;2023-10-09T07:24:46;17.10;99.90
5200;DHT22;2619;47.868;11.892;2023-10-09T07:30:10;17.20;99.90
5200;DHT22;2619;47.868;11.892;2023-10-09T07:33:04;17.40;99.90
5200;DHT22;2619;47.868;11.892;2023-10-09T07:35:46;17.50;99.90
5200;DHT22;2619;47.868;11.892;2023-10-09T07:38:15;17.70;99.90
5200;DHT22;2619;47.868;11.892;2023-10-09T07:40:48;18.00;99.90
5200;DHT22;2619;47.868;11.892;2023-10-09T07:43:30;18.20;99.90
5200;DHT22;2619;47.868;11.892;2023-10-09T07:46:15;18.30;99.90
5200;DHT22;2619;47.868;11.892;2023-10-09T07:48:56;18.30;99.90
5200;DHT22;2619;47.868;11.892;2023-10-09T07:51:23;18.40;99.90
5200;DHT22;2619;47.868;11.892;2023-10-09T07:53:57;18.60;99.90
5200;DHT22;2619;47.868;11.892;2023-10-09T07:56:25;18.70;99.90
5200;DHT22;2619;47.868;11.892;2023-10-09T07:58:55;18.80;99.90
5200;DHT22;2619;47.868;11.892;2023-10-09T08:01:26;18.90;99.90
5200;DHT22;2619;47.868;11.892;2023-10-09T08:03:54;19.10;99.90
5200;DHT22;2619;47.868;11.892;2023-10-09T08:06:26;19.30;99.90
5200;DHT22;2619;47.868;11.892;2023-10-09T08:09:03;19.60;99.90
5200;DHT22;2619;47.868;11.892;2023-10-09T08:11:47;20.00;99.90
5200;DHT22;2619;47.868;11.892;2023-10-09T08:14:42;20.30;99.90
5200;DHT22;2619;47.868;11.892;2023-10-09T08:17:14;20.70;99.90
5200;DHT22;2619;47.868;11.892;2023-10-09T08:19:47;21.10;99.90
5200;DHT22;2619;47.868;11.892;2023-10-09T08:22:29;21.50;99.90
5200;DHT22;2619;47.868;11.892;2023-10-09T08:24:55;21.70;99.90
5200;DHT22;2619;47.868;11.892;2023-10-09T08:27:24;21.90;99.90
5200;DHT22;2619;47.868;11.892;2023-10-09T08:29:59;21.90;99.90
5200;DHT22;2619;47.868;11.892;2023-10-09T08:32:48;22.10;99.90
5200;DHT22;2619;47.868;11.892;2023-10-09T08:35:38;22.30;99.90
5200;DHT22;2619;47.868;11.892;2023-10-09T08:38:14;22.60;99.90
5200;DHT22;2619;47.868;11.892;2023-10-09T08:40:41;22.80;99.90
5200;DHT22;2619;47.868;11.892;2023-10-09T08:45:37;23.30;99.90
5200;DHT22;2619;47.868;11.892;2023-10-09T08:48:10;23.50;99.90
5200;DHT22;2619;47.868;11.892;2023-10-09T08:50:41;23.60;99.90
5200;DHT22;2619;47.868;11.892;2023-10-09T08:53:08;23.80;99.90
5200;DHT22;2619;47.868;11.892;2023-10-09T08:55:37;24.00;99.90
5200;DHT22;2619;47.868;11.892;2023-10-09T08:58:04;24.10;99.90
5200;DHT22;2619;47.868;11.892;2023-10-09T09:00:44;24.00;99.90
5200;DHT22;2619;47.868;11.892;2023-10-09T09:03:13;23.90;99.90
5200;DHT22;2619;47.868;11.892;2023-10-09T09:05:41;23.70;99.90
5200;DHT22;2619;47.868;11.892;2023-10-09T09:08:24;23.80;99.90
5200;DHT22;2619;47.868;11.892;2023-10-09T09:11:08;24.00;99.90
5200;DHT22;2619;47.868;11.892;2023-10-09T09:16:27;24.70;99.90
5200;DHT22;2619;47.868;11.892;2023-10-09T09:19:05;25.30;99.90
5200;DHT22;2619;47.868;11.892;2023-10-09T09:21:37;25.50;99.90
5200;DHT22;2619;47.868;11.892;2023-10-09T09:24:04;25.50;99.90
5200;DHT22;2619;47.868;11.892;2023-10-09T09:26:41;25.50;99.80
5200;DHT22;2619;47.868;11.892;2023-10-09T09:29:14;25.20;99.90
5200;DHT22;2619;47.868;11.892;2023-10-09T09:31:54;25.10;99.80
5200;DHT22;2619;47.868;11.892;2023-10-09T09:34:20;25.00;99.90
5200;DHT22;2619;47.868;11.892;2023-10-09T09:36:55;25.00;99.00
5200;DHT22;2619;47.868;11.892;2023-10-09T09:39:31;24.90;99.60
5200;DHT22;2619;47.868;11.892;2023-10-09T09:42:00;24.70;99.30
5200;DHT22;2619;47.868;11.892;2023-10-09T09:44:44;24.40;99.90
5200;DHT22;2619;47.868;11.892;2023-10-09T09:47:12;24.30;99.50
5200;DHT22;2619;47.868;11.892;2023-10-09T09:49:42;24.30;99.90
5200;DHT22;2619;47.868;11.892;2023-10-09T09:52:09;24.50;99.90
5200;DHT22;2619;47.868;11.892;2023-10-09T09:54:38;24.60;99.90
5200;DHT22;2619;47.868;11.892;2023-10-09T09:57:05;24.80;99.90
5200;DHT22;2619;47.868;11.892;2023-10-09T09:59:38;24.80;99.90
5200;DHT22;2619;47.868;11.892;2023-10-09T10:02:06;24.90;99.90
5200;DHT22;2619;47.868;11.892;2023-10-09T10:04:35;25.00;99.90
5200;DHT22;2619;47.868;11.892;2023-10-09T10:07:02;25.00;99.90
5200;DHT22;2619;47.868;11.892;2023-10-09T10:09:39;25.10;99.90
5200;DHT22;2619;47.868;11.892;2023-10-09T10:12:06;25.20;99.90
5200;DHT22;2619;47.868;11.892;2023-10-09T10:14:56;25.20;99.90
5200;DHT22;2619;47.868;11.892;2023-10-09T10:17:25;25.10;99.90
5200;DHT22;2619;47.868;11.892;2023-10-09T10:20:06;25.10;99.90
5200;DHT22;2619;47.868;11.892;2023-10-09T10:22:44;25.20;99.90
5200;DHT22;2619;47.868;11.892;2023-10-09T10:28:19;25.00;99.90
5200;DHT22;2619;47.868;11.892;2023-10-09T10:30:54;24.90;99.90
5200;DHT22;2619;47.868;11.892;2023-10-09T10:33:20;25.00;99.90
5200;DHT22;2619;47.868;11.892;2023-10-09T10:35:48;24.90;99.90
5200;DHT22;2619;47.868;11.892;2023-10-09T10:38:31;25.00;99.90
5200;DHT22;2619;47.868;11.892;2023-10-09T10:41:14;25.10;99.90
5200;DHT22;2619;47.868;11.892;2023-10-09T10:43:45;25.30;99.90
5200;DHT22;2619;47.868;11.892;2023-10-09T10:46:18;25.20;99.60
5200;DHT22;2619;47.868;11.892;2023-10-09T10:49:16;25.20;99.90
5200;DHT22;2619;47.868;11.892;2023-10-09T10:51:42;25.20;99.90
5200;DHT22;2619;47.868;11.892;2023-10-09T10:54:20;25.30;99.90
5200;DHT22;2619;47.868;11.892;2023-10-09T10:56:58;25.30;99.60
5200;DHT22;2619;47.868;11.892;2023-10-09T10:59:29;25.30;99.90
5200;DHT22;2619;47.868;11.892;2023-10-09T11:01:59;25.50;99.60
5200;DHT22;2619;47.868;11.892;2023-10-09T11:04:28;25.60;99.50
5200;DHT22;2619;47.868;11.892;2023-10-09T11:07:10;25.90;99.50
5200;DHT22;2619;47.868;11.892;2023-10-09T11:09:50;26.00;98.70
5200;DHT22;2619;47.868;11.892;2023-10-09T11:15:11;26.50;97.80
5200;DHT22;2619;47.868;11.892;2023-10-09T11:18:02;26.50;99.90
5200;DHT22;2619;47.868;11.892;2023-10-09T11:20:43;26.50;98.20
5200;DHT22;2619;47.868;11.892;2023-10-09T11:23:22;26.40;96.90
5200;DHT22;2619;47.868;11.892;2023-10-09T11:26:11;26.00;97.10
5200;DHT22;2619;47.868;11.892;2023-10-09T11:29:26;25.80;96.70
5200;DHT22;2619;47.868;11.892;2023-10-09T11:32:15;25.60;96.30
5200;DHT22;2619;47.868;11.892;2023-10-09T11:34:48;25.40;97.40
5200;DHT22;2619;47.868;11.892;2023-10-09T11:37:24;25.10;97.40
5200;DHT22;2619;47.868;11.892;2023-10-09T11:39:57;24.80;97.00
5200;DHT22;2619;47.868;11.892;2023-10-09T11:42:24;24.60;95.90
5200;DHT22;2619;47.868;11.892;2023-10-09T11:45:20;24.40;96.90
5200;DHT22;2619;47.868;11.892;2023-10-09T11:47:50;24.40;95.90
5200;DHT22;2619;47.868;11.892;2023-10-09T11:50:46;24.50;96.50
5200;DHT22;2619;47.868;11.892;2023-10-09T11:53:45;24.50;94.60
5200;DHT22;2619;47.868;11.892;2023-10-09T11:56:15;24.80;95.70
5200;DHT22;2619;47.868;11.892;2023-10-09T11:58:47;25.00;96.40
5200;DHT22;2619;47.868;11.892;2023-10-09T12:01:15;25.10;94.60
5200;DHT22;2619;47.868;11.892;2023-10-09T12:03:46;25.30;95.30
5200;DHT22;2619;47.868;11.892;2023-10-09T12:06:20;25.50;94.40
5200;DHT22;2619;47.868;11.892;2023-10-09T12:08:49;25.60;93.50
5200;DHT22;2619;47.868;11.892;2023-10-09T12:11:15;25.60;93.80
5200;DHT22;2619;47.868;11.892;2023-10-09T12:13:48;25.80;92.90
5200;DHT22;2619;47.868;11.892;2023-10-09T12:16:14;25.80;94.40
5200;DHT22;2619;47.868;11.892;2023-10-09T12:18:41;25.80;93.10
5200;DHT22;2619;47.868;11.892;2023-10-09T12:21:08;25.80;92.40
5200;DHT22;2619;47.868;11.892;2023-10-09T12:23:41;25.70;92.70
5200;DHT22;2619;47.868;11.892;2023-10-09T12:26:09;25.60;92.50
5200;DHT22;2619;47.868;11.892;2023-10-09T12:28:40;25.30;92.00
5200;DHT22;2619;47.868;11.892;2023-10-09T12:31:05;25.20;92.20
5200;DHT22;2619;47.868;11.892;2023-10-09T12:33:31;25.00;93.20
5200;DHT22;2619;47.868;11.892;2023-10-09T12:35:57;25.10;94.90
5200;DHT22;2619;47.868;11.892;2023-10-09T12:38:29;25.00;92.90
5200;DHT22;2619;47.868;11.892;2023-10-09T12:41:02;24.90;93.00
5200;DHT22;2619;47.868;11.892;2023-10-09T12:43:34;24.80;93.90
5200;DHT22;2619;47.868;11.892;2023-10-09T12:46:07;24.80;95.60
5200;DHT22;2619;47.868;11.892;2023-10-09T12:48:33;24.70;95.10
5200;DHT22;2619;47.868;11.892;2023-10-09T12:50:59;24.70;94.50
5200;DHT22;2619;47.868;11.892;2023-10-09T12:53:32;24.50;94.70
5200;DHT22;2619;47.868;11.892;2023-10-09T12:55:58;24.40;94.60
5200;DHT22;2619;47.868;11.892;2023-10-09T12:58:24;24.20;96.00
5200;DHT22;2619;47.868;11.892;2023-10-09T13:00:52;24.10;97.20
5200;DHT22;2619;47.868;11.892;2023-10-09T13:03:18;24.10;96.30
5200;DHT22;2619;47.868;11.892;2023-10-09T13:08:29;24.00;96.90
5200;DHT22;2619;47.868;11.892;2023-10-09T13:11:05;23.90;96.80
5200;DHT22;2619;47.868;11.892;2023-10-09T13:13:41;23.90;99.90
5200;DHT22;2619;47.868;11.892;2023-10-09T13:16:13;23.80;99.90
5200;DHT22;2619;47.868;11.892;2023-10-09T13:18:48;23.60;99.90
5200;DHT22;2619;47.868;11.892;2023-10-09T13:21:23;23.50;99.90
5200;DHT22;2619;47.868;11.892;2023-10-09T13:23:50;23.50;99.90
5200;DHT22;2619;47.868;11.892;2023-10-09T13:26:17;23.50;99.90
5200;DHT22;2619;47.868;11.892;2023-10-09T13:28:48;23.30;99.90
5200;DHT22;2619;47.868;11.892;2023-10-09T13:31:14;23.30;99.90
5200;DHT22;2619;47.868;11.892;2023-10-09T13:33:41;23.00;99.90
5200;DHT22;2619;47.868;11.892;2023-10-09T13:36:11;23.00;99.90
5200;DHT22;2619;47.868;11.892;2023-10-09T13:38:56;22.90;99.90
5200;DHT22;2619;47.868;11.892;2023-10-09T13:41:22;22.80;99.90
5200;DHT22;2619;47.868;11.892;2023-10-09T13:43:51;22.70;99.90
5200;DHT22;2619;47.868;11.892;2023-10-09T13:46:17;22.70;99.90
5200;DHT22;2619;47.868;11.892;2023-10-09T13:48:43;22.70;99.90
5200;DHT22;2619;47.868;11.892;2023-10-09T13:51:11;22.80;99.90
5200;DHT22;2619;47.868;11.892;2023-10-09T13:53:43;22.70;99.90
5200;DHT22;2619;47.868;11.892;2023-10-09T13:56:18;22.60;99.90
5200;DHT22;2619;47.868;11.892;2023-10-09T13:58:52;22.60;99.90
5200;DHT22;2619;47.868;11.892;2023-10-09T14:01:20;22.50;99.90
5200;DHT22;2619;47.868;11.892;2023-10-09T14:03:59;22.60;99.90
5200;DHT22;2619;47.868;11.892;2023-10-09T14:06:25;22.70;99.90
5200;DHT22;2619;47.868;11.892;2023-10-09T14:08:58;22.80;99.90
5200;DHT22;2619;47.868;11.892;2023-10-09T14:11:25;22.80;99.90
5200;DHT22;2619;47.868;11.892;2023-10-09T14:13:52;22.70;99.90
5200;DHT22;2619;47.868;11.892;2023-10-09T14:16:18;22.60;99.90
5200;DHT22;2619;47.868;11.892;2023-10-09T14:18:50;22.50;99.90
5200;DHT22;2619;47.868;11.892;2023-10-09T14:21:25;22.40;99.90
5200;DHT22;2619;47.868;11.892;2023-10-09T14:23:52;22.20;99.90
5200;DHT22;2619;47.868;11.892;2023-10-09T14:26:28;22.00;99.90
5200;DHT22;2619;47.868;11.892;2023-10-09T14:28:55;21.70;99.90
5200;DHT22;2619;47.868;11.892;2023-10-09T14:31:23;21.50;99.90
5200;DHT22;2619;47.868;11.892;2023-10-09T14:33:56;21.40;99.90
5200;DHT22;2619;47.868;11.892;2023-10-09T14:36:23;21.20;99.90
5200;DHT22;2619;47.868;11.892;2023-10-09T14:38:50;21.10;99.90
5200;DHT22;2619;47.868;11.892;2023-10-09T14:41:21;21.00;99.90
5200;DHT22;2619;47.868;11.892;2023-10-09T14:43:50;20.80;99.90
5200;DHT22;2619;47.868;11.892;2023-10-09T14:46:16;20.70;99.90
5200;DHT22;2619;47.868;11.892;2023-10-09T14:48:41;20.60;99.90
5200;DHT22;2619;47.868;11.892;2023-10-09T14:51:11;20.50;99.90
5200;DHT22;2619;47.868;11.892;2023-10-09T14:53:39;20.40;99.90
5200;DHT22;2619;47.868;11.892;2023-10-09T14:56:06;20.40;99.90
5200;DHT22;2619;47.868;11.892;2023-10-09T14:58:35;20.50;99.90
5200;DHT22;2619;47.868;11.892;2023-10-09T15:01:11;20.60;99.90
5200;DHT22;2619;47.868;11.892;2023-10-09T15:03:38;20.70;99.90
5200;DHT22;2619;47.868;11.892;2023-10-09T15:06:04;20.70;99.90
5200;DHT22;2619;47.868;11.892;2023-10-09T15:08:35;20.60;98.30
5200;DHT22;2619;47.868;11.892;2023-10-09T15:11:00;20.70;98.90
5200;DHT22;2619;47.868;11.892;2023-10-09T15:13:26;20.70;98.90
5200;DHT22;2619;47.868;11.892;2023-10-09T15:15:54;20.70;98.20
5200;DHT22;2619;47.868;11.892;2023-10-09T15:18:21;20.70;99.30
5200;DHT22;2619;47.868;11.892;2023-10-09T15:20:47;20.60;99.90
5200;DHT22;2619;47.868;11.892;2023-10-09T15:23:13;20.70;99.90
5200;DHT22;2619;47.868;11.892;2023-10-09T15:25:39;20.70;99.90
5200;DHT22;2619;47.868;11.892;2023-10-09T15:28:07;20.70;99.90
5200;DHT22;2619;47.868;11.892;2023-10-09T15:30:35;20.60;99.90
5200;DHT22;2619;47.868;11.892;2023-10-09T15:33:04;20.50;99.90
5200;DHT22;2619;47.868;11.892;2023-10-09T15:35:30;20.40;99.90
5200;DHT22;2619;47.868;11.892;2023-10-09T15:38:02;20.30;99.90
5200;DHT22;2619;47.868;11.892;2023-10-09T15:40:31;20.20;99.90
5200;DHT22;2619;47.868;11.892;2023-10-09T15:43:00;20.10;99.90
5200;DHT22;2619;47.868;11.892;2023-10-09T15:45:26;20.00;99.90
5200;DHT22;2619;47.868;11.892;2023-10-09T15:47:54;20.00;99.90
5200;DHT22;2619;47.868;11.892;2023-10-09T15:50:21;19.90;99.90
5200;DHT22;2619;47.868;11.892;2023-10-09T15:52:54;19.80;99.90
5200;DHT22;2619;47.868;11.892;2023-10-09T15:55:21;19.60;99.90
5200;DHT22;2619;47.868;11.892;2023-10-09T15:57:50;19.40;99.90
5200;DHT22;2619;47.868;11.892;2023-10-09T16:00:18;19.20;99.90
5200;DHT22;2619;47.868;11.892;2023-10-09T16:02:44;19.10;99.90
5200;DHT22;2619;47.868;11.892;2023-10-09T16:05:11;19.00;99.90
5200;DHT22;2619;47.868;11.892;2023-10-09T16:07:38;18.80;99.90
5200;DHT22;2619;47.868;11.892;2023-10-09T16:10:08;18.70;99.90
5200;DHT22;2619;47.868;11.892;2023-10-09T16:12:39;18.70;99.90
5200;DHT22;2619;47.868;11.892;2023-10-09T16:15:06;18.70;99.90
5200;DHT22;2619;47.868;11.892;2023-10-09T16:17:35;18.60;99.90
5200;DHT22;2619;47.868;11.892;2023-10-09T16:20:03;18.50;99.90
5200;DHT22;2619;47.868;11.892;2023-10-09T16:22:31;18.40;99.90
5200;DHT22;2619;47.868;11.892;2023-10-09T16:25:00;18.30;99.90
5200;DHT22;2619;47.868;11.892;2023-10-09T16:27:26;18.10;99.90
5200;DHT22;2619;47.868;11.892;2023-10-09T16:29:53;18.00;99.90
5200;DHT22;2619;47.868;11.892;2023-10-09T16:32:20;17.90;99.90
5200;DHT22;2619;47.868;11.892;2023-10-09T16:34:48;17.80;99.90
5200;DHT22;2619;47.868;11.892;2023-10-09T16:37:14;17.70;99.90
5200;DHT22;2619;47.868;11.892;2023-10-09T16:39:40;17.70;99.90
5200;DHT22;2619;47.868;11.892;2023-10-09T16:42:07;17.60;99.90
5200;DHT22;2619;47.868;11.892;2023-10-09T16:44:35;17.50;99.90